Latest Weather Observations for Swan Hill

IDN60801

Issued at 10:03 am EST Tuesday 28 April 2015 (issued every 30 minutes, with the page automatically refreshed every 10 minutes)

About weather observations | Map of weather stations | Latest weather observations for NSW | Other Formats
Station Details ID: 077094 Name: SWAN HILL AERODROME Lat: -35.38 Lon: 143.54 Height: 71.0 m
Data from the previous 72 hours. | See also: Recent months at Swan Hill
Date/Time
EST
Temp
°C
App
Temp
°C
Dew
Point
Rel
Hum
%
Delta-T
°C
Wind Press
QNH
hPa
Press
MSL
hPa
Rain
since 9 am
mm
Dir
 
Spd
km/h
Gust
km/h
Spd
kts
Gust
kts
28/10:00am 13.5 9.5 6.6 63 3.3 SSE 17 24 9 13 1028.8 1028.8 0.0
28/09:30am 12.4 8.0 6.7 68 2.7 SSE 19 26 10 14 1028.8 1028.8 0.0
28/09:00am 11.4 7.4 6.7 73 2.2 S 17 24 9 13 1028.8 1028.8 0.0
28/08:30am 10.2 7.3 6.7 79 1.6 S 11 17 6 9 1028.6 1028.5 0.0
28/08:00am 7.9 5.3 5.9 87 0.9 S 9 13 5 7 1028.4 1028.3 0.0
28/07:30am 6.2 3.3 4.7 90 0.7 SSW 9 13 5 7 1028.0 1027.9 0.0
28/07:00am 5.7 2.7 4.3 91 0.6 SSW 9 13 5 7 1027.8 1027.7 0.0
28/06:30am 5.9 3.0 4.4 90 0.6 SSW 9 13 5 7 1027.5 1027.4 0.0
28/06:00am 5.9 3.0 4.4 90 0.6 SSW 9 11 5 6 1027.2 1027.1 0.0
28/05:30am 5.7 3.1 4.2 90 0.6 S 7 9 4 5 1027.0 1026.9 0.0
28/05:00am 5.7 4.3 3.7 87 0.8 CALM 0 0 0 0 1026.9 1026.8 0.0
28/04:30am 6.2 3.7 4.0 86 0.9 S 6 7 3 4 1026.6 1026.5 0.0
28/04:00am 7.3 4.4 4.6 83 1.2 S 9 11 5 6 1026.3 1026.2 0.0
28/03:30am 7.9 5.0 4.8 81 1.4 S 9 11 5 6 1026.2 1026.1 0.0
28/03:00am 8.5 5.7 5.1 79 1.5 S 9 15 5 8 1026.2 1026.1 0.0
28/02:30am 8.9 5.7 5.3 78 1.6 S 11 15 6 8 1026.3 1026.2 0.0
28/02:00am 8.6 5.4 5.0 78 1.6 S 11 15 6 8 1026.2 1026.1 0.0
28/01:30am 8.7 5.8 4.9 77 1.7 SSW 9 11 5 6 1026.2 1026.1 0.0
28/01:00am 9.8 7.0 5.2 73 2.1 S 9 13 5 7 1026.3 1026.2 0.0
28/12:30am 10.4 7.7 5.4 71 2.3 S 9 13 5 7 1026.3 1026.2 0.0
28/12:00am 10.4 7.1 4.8 68 2.5 SSW 11 13 6 7 1026.1 1026.0 0.0
 
Date/Time
EST
Temp
°C
App
Temp
°C
Dew
Point
Rel
Hum
%
Delta-T
°C
Wind Press
QNH
hPa
Press
MSL
hPa
Rain
since 9 am
mm
Dir
 
Spd
km/h
Gust
km/h
Spd
kts
Gust
kts
27/11:30pm 11.9 8.7 5.1 63 3.1 S 11 15 6 8 1026.0 1025.9 0.0
27/11:00pm 13.0 10.2 5.2 59 3.6 SSW 9 13 5 7 1025.9 1025.8 0.0
27/10:30pm 13.5 10.3 4.9 56 4.0 SSW 11 15 6 8 1025.9 1025.8 0.0
27/10:00pm 13.6 10.3 4.7 55 4.1 SW 11 13 6 7 1025.8 1025.7 0.0
27/09:30pm 13.8 10.5 4.7 54 4.2 SW 11 13 6 7 1025.5 1025.4 0.0
27/09:00pm 14.0 10.7 4.6 53 4.3 SW 11 13 6 7 1025.4 1025.3 0.0
27/08:30pm 14.5 11.5 4.2 50 4.8 SW 9 11 5 6 1025.3 1025.2 0.0
27/08:00pm 14.9 11.6 4.3 49 4.9 SW 11 13 6 7 1025.2 1025.1 0.0
27/07:30pm 15.1 11.3 3.9 47 5.2 SW 13 15 7 8 1025.0 1024.9 0.0
27/07:00pm 15.1 12.1 4.2 48 5.0 SW 9 13 5 7 1024.8 1024.7 0.0
27/06:30pm 15.5 12.1 4.2 47 5.3 SSW 11 15 6 8 1024.6 1024.5 0.0
27/06:00pm 15.7 11.9 4.1 46 5.4 SW 13 17 7 9 1024.4 1024.3 0.0
27/05:30pm 16.0 12.2 3.8 44 5.7 SSW 13 19 7 10 1024.3 1024.2 0.0
27/05:00pm 16.2 12.0 3.6 43 5.8 SSW 15 22 8 12 1024.1 1024.0 0.0
27/04:30pm 16.2 11.5 2.9 41 6.1 SSW 17 28 9 15 1023.9 1023.8 0.0
27/04:00pm 16.7 11.5 2.7 39 6.3 SSW 19 26 10 14 1023.7 1023.6 0.0
27/03:30pm 16.9 12.3 3.6 41 6.2 SSW 17 28 9 15 1023.6 1023.5 0.0
27/03:00pm 17.2 12.4 2.4 37 6.7 SW 17 22 9 12 1023.6 1023.5 0.0
27/02:30pm 17.0 12.1 4.0 42 6.1 SSW 19 30 10 16 1023.5 1023.4 0.0
27/02:00pm 16.3 11.4 4.0 44 5.7 SW 19 28 10 15 1023.6 1023.5 0.0
27/01:30pm 16.1 11.2 3.9 44 5.7 SW 19 33 10 18 1023.7 1023.6 0.0
27/01:00pm 16.6 12.5 4.3 44 5.8 SW 15 22 8 12 1023.9 1023.8 0.0
27/12:30pm 15.4 11.3 4.5 48 5.1 SSW 15 26 8 14 1024.3 1024.2 0.0
27/12:00pm 16.4 12.6 6.0 50 5.0 SSW 15 24 8 13 1024.6 1024.5 0.0
27/11:30am 14.7 11.4 6.3 57 4.1 SSW 13 22 7 12 1025.0 1024.9 0.0
27/11:00am 14.2 10.2 6.6 60 3.7 SSW 17 24 9 13 1025.1 1025.0 0.0
27/10:30am 14.6 10.7 6.9 60 3.8 SSW 17 26 9 14 1025.2 1025.1 0.0
27/10:00am 13.7 9.9 7.5 66 3.0 SSW 17 24 9 13 1025.3 1025.2 0.0
27/09:30am 12.3 7.8 7.0 70 2.6 SW 20 28 11 15 1025.3 1025.2 0.0
27/09:00am 12.6 8.1 7.1 69 2.6 SW 20 30 11 16 1025.1 1025.0 0.0
27/08:30am 11.8 6.9 6.9 72 2.3 SW 22 28 12 15 1024.8 1024.7 0.0
27/08:00am 11.0 6.7 6.9 76 1.9 SW 19 24 10 13 1024.7 1024.6 0.0
27/07:30am 9.9 6.3 6.6 80 1.5 SW 15 22 8 12 1024.4 1024.3 0.0
27/07:00am 7.9 3.7 5.7 86 1.0 WSW 17 19 9 10 1024.1 1024.0 0.0
27/06:30am 7.6 4.4 4.9 83 1.2 SW 11 15 6 8 1024.1 1024.0 0.0
27/06:00am 8.3 4.7 5.2 81 1.4 SW 13 15 7 8 1023.9 1023.8 0.0
27/05:30am 8.7 5.5 5.3 79 1.5 WSW 11 13 6 7 1023.9 1023.8 0.0
27/05:00am 9.7 6.2 5.5 75 1.9 SW 13 17 7 9 1023.5 1023.4 0.0
27/04:30am 10.4 7.0 6.0 74 2.0 SW 13 19 7 10 1023.4 1023.3 0.0
27/04:00am 10.0 6.6 6.0 76 1.8 SW 13 15 7 8 1023.4 1023.3 0.0
27/03:30am 9.1 5.3 5.7 79 1.6 SW 15 19 8 10 1023.3 1023.2 0.0
27/03:00am 8.6 5.0 4.8 77 1.7 SW 13 17 7 9 1023.2 1023.1 0.0
27/02:30am 10.2 6.4 5.6 73 2.1 SW 15 19 8 10 1023.2 1023.1 0.0
27/02:00am 10.8 7.3 5.6 70 2.4 SSW 13 17 7 9 1023.4 1023.3 0.0
27/01:30am 11.7 8.5 5.3 65 3.0 S 11 15 6 8 1023.3 1023.2 0.0
27/01:00am 11.5 8.6 4.9 64 3.0 S 9 11 5 6 1023.3 1023.2 0.0
27/12:30am 11.6 9.0 4.3 61 3.3 S 7 11 4 6 1023.4 1023.3 0.0
27/12:00am 11.5 8.5 4.0 60 3.3 S 9 13 5 7 1023.3 1023.2 0.0
 
Date/Time
EST
Temp
°C
App
Temp
°C
Dew
Point
Rel
Hum
%
Delta-T
°C
Wind Press
QNH
hPa
Press
MSL
hPa
Rain
since 9 am
mm
Dir
 
Spd
km/h
Gust
km/h
Spd
kts
Gust
kts
26/11:30pm 11.4 8.4 3.9 60 3.4 S 9 15 5 8 1023.3 1023.2 0.0
26/11:00pm 11.5 8.0 3.3 57 3.6 S 11 15 6 8 1023.3 1023.2 0.0
26/10:30pm 12.2 8.7 3.4 55 3.9 S 11 19 6 10 1023.3 1023.2 0.0
26/10:00pm 13.0 9.2 3.7 53 4.2 S 13 19 7 10 1023.5 1023.4 0.0
26/09:30pm 13.3 8.7 3.9 53 4.3 SSW 17 24 9 13 1023.3 1023.2 0.0
26/09:00pm 13.2 8.6 3.8 53 4.2 SSW 17 24 9 13 1023.1 1023.0 0.0
26/08:30pm 13.2 8.6 3.8 53 4.3 SW 17 24 9 13 1022.8 1022.7 0.0
26/08:00pm 13.5 8.0 3.8 52 4.4 SW 22 28 12 15 1022.5 1022.4 0.0
26/07:30pm 13.9 7.6 3.7 50 4.6 SW 26 41 14 22 1022.2 1022.1 0.0
26/07:00pm 14.3 8.4 3.7 49 4.8 WSW 24 32 13 17 1021.9 1021.8 0.0
26/06:30pm 14.5 8.9 3.6 48 5.0 WSW 22 30 12 16 1021.4 1021.3 0.0
26/06:00pm 14.8 8.2 4.2 49 4.9 SW 28 37 15 20 1021.1 1021.0 0.0
26/05:30pm 15.4 8.9 4.5 48 5.1 SW 28 37 15 20 1020.7 1020.6 0.0
26/05:00pm 16.6 9.6 4.3 44 5.8 SW 30 37 16 20 1020.4 1020.3 0.0
26/04:30pm 17.0 10.7 4.0 42 6.1 SW 26 37 14 20 1020.0 1019.9 0.0
26/04:00pm 16.5 10.3 4.2 44 5.8 SW 26 35 14 19 1020.0 1019.9 0.0
26/03:30pm 16.2 11.3 4.9 47 5.4 SSW 20 33 11 18 1020.0 1019.9 0.0
26/03:00pm 16.2 9.6 4.3 45 5.6 SW 28 41 15 22 1019.9 1019.8 0.0
26/02:30pm 16.2 10.1 4.9 47 5.4 SW 26 41 14 22 1019.9 1019.8 0.0
26/02:00pm 15.8 9.7 4.8 48 5.2 SSW 26 39 14 21 1019.8 1019.7 0.0
26/01:30pm 15.1 9.5 5.6 53 4.5 SSW 24 39 13 21 1020.0 1019.9 0.0
26/01:00pm 14.9 9.0 6.0 55 4.3 SW 26 39 14 21 1020.1 1020.0 0.0
26/12:30pm 14.2 8.8 6.3 59 3.8 SSW 24 33 13 18 1020.3 1020.2 0.0
26/12:00pm 13.5 7.7 6.4 62 3.4 SSW 26 39 14 21 1020.5 1020.4 0.0
26/11:30am 13.2 7.4 6.3 63 3.3 SSW 26 37 14 20 1020.7 1020.6 0.0
26/11:00am 14.4 8.9 5.7 56 4.1 SSW 24 46 13 25 1020.6 1020.5 0.0
26/10:30am 13.0 7.9 5.9 62 3.4 SSW 22 35 12 19 1020.6 1020.5 0.0
26/10:00am 13.0 7.3 6.6 65 3.1 SSW 26 39 14 21 1020.4 1020.3 0.0
26/09:30am 12.0 6.3 6.9 71 2.4 SW 26 35 14 19 1020.3 1020.2 0.0
26/09:00am 11.2 5.6 7.1 76 2.0 SW 26 39 14 21 1020.2 1020.1 0.2
26/08:30am 10.5 5.3 7.4 81 1.5 SW 24 33 13 18 1019.9 1019.8 0.2
26/08:00am 9.5 5.0 7.1 85 1.1 SW 20 26 11 14 1019.4 1019.3 0.2
26/07:30am 8.2 3.7 6.3 88 0.9 SW 19 28 10 15 1018.9 1018.8 0.2
26/07:00am 7.8 4.1 6.1 89 0.8 SW 15 20 8 11 1018.2 1018.1 0.2
26/06:30am 7.8 3.7 6.1 89 0.8 SW 17 22 9 12 1017.8 1017.8 0.2
26/06:00am 7.9 3.4 6.2 89 0.8 SW 19 24 10 13 1017.6 1017.6 0.2
26/05:30am 7.9 3.2 6.0 88 0.9 SW 20 26 11 14 1017.3 1017.3 0.2
26/05:00am 8.0 4.2 6.0 87 0.9 SW 15 20 8 11 1017.2 1017.2 0.2
26/04:30am 8.3 3.8 5.9 85 1.1 SW 19 24 10 13 1016.8 1016.8 0.2
26/04:00am 8.7 4.6 6.0 83 1.2 SW 17 22 9 12 1016.6 1016.5 0.0
26/03:30am 9.0 4.9 6.3 83 1.2 SW 17 22 9 12 1016.3 1016.2 0.0
26/03:00am 9.5 5.4 6.4 81 1.4 SSW 17 24 9 13 1016.2 1016.1 0.0
26/02:30am 9.5 5.9 6.8 83 1.3 SW 15 22 8 12 1016.2 1016.1 0.0
26/02:00am 9.8 5.9 7.1 83 1.3 SSW 17 22 9 12 1016.0 1015.9 0.0
26/01:30am 10.2 6.7 7.3 82 1.4 SSW 15 22 8 12 1015.8 1015.7 0.0
26/01:00am 10.6 6.5 7.8 83 1.4 SSW 19 26 10 14 1015.7 1015.6 0.0
26/12:30am 11.0 7.9 8.8 86 1.1 SSW 15 20 8 11 1015.3 1015.2 0.0
26/12:00am 11.6 8.2 9.0 84 1.3 SSW 17 26 9 14 1015.0 1014.9 0.0
 
Date/Time
EST
Temp
°C
App
Temp
°C
Dew
Point
Rel
Hum
%
Delta-T
°C
Wind Press
QNH
hPa
Press
MSL
hPa
Rain
since 9 am
mm
Dir
 
Spd
km/h
Gust
km/h
Spd
kts
Gust
kts
25/11:30pm 11.7 8.3 9.3 85 1.2 SSW 17 28 9 15 1014.9 1014.8 0.0
25/11:00pm 12.0 9.1 9.6 85 1.2 SSW 15 20 8 11 1014.6 1014.5 0.0
25/10:30pm 12.2 9.2 9.4 83 1.4 SSW 15 20 8 11 1014.1 1014.0 0.0
25/10:00pm 12.4 9.4 9.4 82 1.5 SSW 15 22 8 12 1013.9 1013.8 0.0
25/09:30pm 12.6 9.3 9.4 81 1.6 SSW 17 22 9 12 1013.6 1013.5 0.0
25/09:00pm 12.9 9.9 9.4 79 1.8 SSW 15 22 8 12 1013.2 1013.1 0.0
25/08:30pm 13.4 9.7 9.5 77 2.0 SSW 19 26 10 14 1012.8 1012.7 0.0
25/08:00pm 13.7 10.4 9.6 76 2.1 SSW 17 24 9 13 1012.4 1012.3 0.0
25/07:30pm 13.8 10.9 9.8 77 2.1 SSW 15 19 8 10 1012.2 1012.1 0.0
25/07:00pm 14.3 11.0 9.7 74 2.4 SSW 17 22 9 12 1011.9 1011.8 0.0
25/06:30pm 14.0 11.0 9.2 73 2.5 SW 15 22 8 12 1011.3 1011.2 0.0
25/06:00pm 14.2 11.2 7.7 65 3.2 SSW 13 17 7 9 1010.9 1010.8 0.0
25/05:30pm 14.9 10.8 7.9 63 3.5 SSW 19 32 10 17 1010.3 1010.2 0.0
25/05:00pm 16.0 11.7 7.2 56 4.4 SW 19 33 10 18 1009.8 1009.7 0.0
25/04:30pm 16.5 12.0 6.3 51 5.0 WSW 19 26 10 14 1009.4 1009.3 0.0
25/04:00pm 16.5 12.8 6.3 51 5.0 WSW 15 24 8 13 1009.3 1009.2 0.0
25/03:30pm 15.9 12.1 5.8 51 4.9 SW 15 24 8 13 1009.2 1009.1 0.0
25/03:00pm 15.1 10.9 5.6 53 4.5 SW 17 24 9 13 1009.1 1009.0 0.0
25/02:30pm 15.0 10.9 6.3 56 4.2 SSW 17 24 9 13 1008.8 1008.7 0.0
25/02:00pm 14.9 11.1 5.7 54 4.4 SW 15 22 8 12 1008.8 1008.7 0.0
25/01:30pm 15.1 10.6 6.1 55 4.3 WSW 19 26 10 14 1008.7 1008.6 0.0
25/01:00pm 14.0 10.4 6.6 61 3.6 WSW 15 19 8 10 1008.8 1008.7 0.0
25/12:30pm 13.2 10.3 8.1 71 2.5 WSW 13 17 7 9 1009.0 1008.9 0.0
25/12:00pm 12.7 10.2 8.2 74 2.2 SW 11 17 6 9 1009.1 1009.0 0.0
25/11:30am 12.7 9.9 8.6 76 2.1 SW 13 17 7 9 1009.1 1009.0 0.0
25/11:00am 12.2 10.4 9.6 84 1.3 S 9 15 5 8 1009.0 1008.9 0.0
25/10:30am 11.4 9.7 9.8 90 0.8 SSE 9 13 5 7 1009.0 1008.9 0.0
25/10:21am 11.3 9.6 9.9 91 0.7 SSE 9 15 5 8 1008.9 1008.8 0.0
25/10:07am 11.2 9.5 9.9 92 0.7 S 9 11 5 6 1008.9 1008.8 0.0

Other Formats:

Comma delimited format used in spreadsheet applications
http://www.bom.gov.au/fwo/IDN60801/IDN60801.94843.axf

JavaScript Object Notation format (JSON) in row-major order
http://www.bom.gov.au/fwo/IDN60801/IDN60801.94843.json